sensor_id;sensor_type;location;lat;lon;timestamp;pressure;altitude;pressure_sealevel;temperature;humidity
34482;BME280;20720;48.886;9.388;2023-02-18T00:00:55;99281.72;;;15.14;100.00
34482;BME280;20720;48.886;9.388;2023-02-18T00:03:28;99291.69;;;15.05;100.00
34482;BME280;20720;48.886;9.388;2023-02-18T00:05:54;99276.63;;;15.25;100.00
34482;BME280;20720;48.886;9.388;2023-02-18T00:08:20;99284.16;;;15.02;100.00
34482;BME280;20720;48.886;9.388;2023-02-18T00:10:45;99282.91;;;14.59;100.00
34482;BME280;20720;48.886;9.388;2023-02-18T00:13:10;99277.34;;;14.34;100.00
34482;BME280;20720;48.886;9.388;2023-02-18T00:15:37;99284.75;;;14.78;100.00
34482;BME280;20720;48.886;9.388;2023-02-18T00:18:03;99281.44;;;14.50;100.00
34482;BME280;20720;48.886;9.388;2023-02-18T00:20:28;99287.34;;;14.65;100.00
34482;BME280;20720;48.886;9.388;2023-02-18T00:22:54;99282.59;;;14.28;100.00
34482;BME280;20720;48.886;9.388;2023-02-18T00:25:19;99283.63;;;14.33;100.00
34482;BME280;20720;48.886;9.388;2023-02-18T00:27:44;99281.59;;;14.29;100.00
34482;BME280;20720;48.886;9.388;2023-02-18T00:30:10;99279.84;;;14.55;100.00
34482;BME280;20720;48.886;9.388;2023-02-18T00:32:35;99276.84;;;14.17;100.00
34482;BME280;20720;48.886;9.388;2023-02-18T00:35:01;99270.44;;;14.46;100.00
34482;BME280;20720;48.886;9.388;2023-02-18T00:37:26;99268.38;;;14.29;100.00
34482;BME280;20720;48.886;9.388;2023-02-18T00:39:51;99266.38;;;14.50;100.00
34482;BME280;20720;48.886;9.388;2023-02-18T00:42:17;99259.19;;;14.25;100.00
34482;BME280;20720;48.886;9.388;2023-02-18T00:44:42;99260.72;;;14.53;100.00
34482;BME280;20720;48.886;9.388;2023-02-18T00:47:07;99248.91;;;14.56;100.00
34482;BME280;20720;48.886;9.388;2023-02-18T00:49:32;99263.59;;;14.78;100.00
34482;BME280;20720;48.886;9.388;2023-02-18T00:51:58;99252.59;;;14.81;100.00
34482;BME280;20720;48.886;9.388;2023-02-18T00:54:23;99252.78;;;14.66;100.00
34482;BME280;20720;48.886;9.388;2023-02-18T00:56:49;99255.44;;;14.92;100.00
34482;BME280;20720;48.886;9.388;2023-02-18T00:59:14;99259.91;;;14.92;100.00
34482;BME280;20720;48.886;9.388;2023-02-18T01:01:39;99261.97;;;15.09;100.00
34482;BME280;20720;48.886;9.388;2023-02-18T01:04:04;99277.63;;;15.18;100.00
34482;BME280;20720;48.886;9.388;2023-02-18T01:06:30;99286.78;;;14.95;100.00
34482;BME280;20720;48.886;9.388;2023-02-18T01:08:56;99290.75;;;14.33;100.00
34482;BME280;20720;48.886;9.388;2023-02-18T01:11:21;99283.72;;;14.92;100.00
34482;BME280;20720;48.886;9.388;2023-02-18T01:13:46;99280.66;;;14.82;100.00
34482;BME280;20720;48.886;9.388;2023-02-18T01:16:11;99273.13;;;15.31;100.00
34482;BME280;20720;48.886;9.388;2023-02-18T01:18:38;99268.47;;;14.94;100.00
34482;BME280;20720;48.886;9.388;2023-02-18T01:21:04;99267.25;;;14.90;100.00
34482;BME280;20720;48.886;9.388;2023-02-18T01:23:32;99272.94;;;14.74;100.00
34482;BME280;20720;48.886;9.388;2023-02-18T01:25:57;99270.91;;;14.89;100.00
34482;BME280;20720;48.886;9.388;2023-02-18T01:28:23;99269.91;;;14.96;100.00
34482;BME280;20720;48.886;9.388;2023-02-18T01:30:50;99274.13;;;14.52;100.00
34482;BME280;20720;48.886;9.388;2023-02-18T01:33:16;99263.97;;;14.62;100.00
34482;BME280;20720;48.886;9.388;2023-02-18T01:35:41;99259.91;;;14.79;100.00
34482;BME280;20720;48.886;9.388;2023-02-18T01:38:07;99260.94;;;14.71;100.00
34482;BME280;20720;48.886;9.388;2023-02-18T01:40:33;99260.94;;;14.78;100.00
34482;BME280;20720;48.886;9.388;2023-02-18T01:42:58;99259.69;;;14.67;100.00
34482;BME280;20720;48.886;9.388;2023-02-18T01:50:28;99251.34;;;14.51;100.00
34482;BME280;20720;48.886;9.388;2023-02-18T01:52:54;99252.56;;;14.61;100.00
34482;BME280;20720;48.886;9.388;2023-02-18T01:55:19;99250.72;;;14.49;100.00
34482;BME280;20720;48.886;9.388;2023-02-18T01:57:44;99254.63;;;14.92;100.00
34482;BME280;20720;48.886;9.388;2023-02-18T02:00:13;99257.47;;;14.97;100.00
34482;BME280;20720;48.886;9.388;2023-02-18T02:02:43;99257.84;;;14.48;100.00
34482;BME280;20720;48.886;9.388;2023-02-18T02:05:09;99245.25;;;14.44;100.00
34482;BME280;20720;48.886;9.388;2023-02-18T02:07:35;99242.38;;;14.39;100.00
34482;BME280;20720;48.886;9.388;2023-02-18T02:10:00;99239.94;;;14.44;100.00
34482;BME280;20720;48.886;9.388;2023-02-18T02:12:39;99240.34;;;14.54;100.00
34482;BME280;20720;48.886;9.388;2023-02-18T02:26:08;99244.13;;;14.18;100.00
34482;BME280;20720;48.886;9.388;2023-02-18T02:31:56;99221.88;;;14.73;100.00
34482;BME280;20720;48.886;9.388;2023-02-18T02:40:03;99214.31;;;14.38;100.00
34482;BME280;20720;48.886;9.388;2023-02-18T02:42:46;99216.13;;;14.31;100.00
34482;BME280;20720;48.886;9.388;2023-02-18T02:51:09;99227.91;;;14.35;100.00
34482;BME280;20720;48.886;9.388;2023-02-18T02:53:40;99222.84;;;14.59;100.00
34482;BME280;20720;48.886;9.388;2023-02-18T02:56:05;99216.28;;;14.23;100.00
34482;BME280;20720;48.886;9.388;2023-02-18T02:58:31;99213.09;;;14.92;100.00
34482;BME280;20720;48.886;9.388;2023-02-18T03:01:34;99218.41;;;14.53;100.00
34482;BME280;20720;48.886;9.388;2023-02-18T03:04:22;99213.31;;;14.65;100.00
34482;BME280;20720;48.886;9.388;2023-02-18T03:12:40;99208.22;;;14.70;100.00
34482;BME280;20720;48.886;9.388;2023-02-18T03:18:00;99205.78;;;14.49;100.00
34482;BME280;20720;48.886;9.388;2023-02-18T03:20:34;99206.09;;;14.19;100.00
34482;BME280;20720;48.886;9.388;2023-02-18T03:23:03;99189.50;;;14.65;100.00
34482;BME280;20720;48.886;9.388;2023-02-18T03:25:30;99189.50;;;14.65;100.00
34482;BME280;20720;48.886;9.388;2023-02-18T03:28:04;99192.34;;;14.44;100.00
34482;BME280;20720;48.886;9.388;2023-02-18T03:30:39;99186.84;;;14.39;100.00
34482;BME280;20720;48.886;9.388;2023-02-18T03:33:07;99183.13;;;14.13;100.00
34482;BME280;20720;48.886;9.388;2023-02-18T03:35:35;99184.84;;;14.47;100.00
34482;BME280;20720;48.886;9.388;2023-02-18T03:38:18;99185.84;;;14.66;100.00
34482;BME280;20720;48.886;9.388;2023-02-18T03:40:46;99189.03;;;14.15;100.00
34482;BME280;20720;48.886;9.388;2023-02-18T03:43:11;99180.34;;;14.54;100.00
34482;BME280;20720;48.886;9.388;2023-02-18T03:45:37;99185.44;;;14.62;100.00
34482;BME280;20720;48.886;9.388;2023-02-18T03:48:02;99187.41;;;15.13;100.00
34482;BME280;20720;48.886;9.388;2023-02-18T03:50:27;99190.28;;;14.91;100.00
34482;BME280;20720;48.886;9.388;2023-02-18T03:52:53;99182.56;;;14.96;100.00
34482;BME280;20720;48.886;9.388;2023-02-18T03:55:18;99183.41;;;14.58;100.00
34482;BME280;20720;48.886;9.388;2023-02-18T03:57:43;99185.44;;;14.56;100.00
34482;BME280;20720;48.886;9.388;2023-02-18T04:00:09;99189.09;;;14.42;100.00
34482;BME280;20720;48.886;9.388;2023-02-18T04:02:35;99189.88;;;14.29;100.00
34482;BME280;20720;48.886;9.388;2023-02-18T04:05:01;99189.03;;;14.22;100.00
34482;BME280;20720;48.886;9.388;2023-02-18T04:07:26;99186.06;;;14.64;100.00
34482;BME280;20720;48.886;9.388;2023-02-18T04:09:51;99177.72;;;14.74;100.00
34482;BME280;20720;48.886;9.388;2023-02-18T04:12:16;99182.56;;;14.90;100.00
34482;BME280;20720;48.886;9.388;2023-02-18T04:14:42;99177.09;;;14.85;100.00
34482;BME280;20720;48.886;9.388;2023-02-18T04:17:07;99171.78;;;14.33;100.00
34482;BME280;20720;48.886;9.388;2023-02-18T04:19:32;99169.38;;;14.51;100.00
34482;BME280;20720;48.886;9.388;2023-02-18T04:21:58;99166.69;;;14.25;100.00
34482;BME280;20720;48.886;9.388;2023-02-18T04:24:23;99164.41;;;14.08;100.00
34482;BME280;20720;48.886;9.388;2023-02-18T04:26:48;99167.47;;;14.05;100.00
34482;BME280;20720;48.886;9.388;2023-02-18T04:29:13;99163.56;;;13.95;100.00
34482;BME280;20720;48.886;9.388;2023-02-18T04:31:39;99163.72;;;13.80;100.00
34482;BME280;20720;48.886;9.388;2023-02-18T04:34:04;99165.75;;;13.78;100.00
34482;BME280;20720;48.886;9.388;2023-02-18T04:36:29;99168.06;;;13.94;100.00
34482;BME280;20720;48.886;9.388;2023-02-18T04:38:55;99162.91;;;13.80;100.00
34482;BME280;20720;48.886;9.388;2023-02-18T04:41:20;99166.25;;;14.14;100.00
34482;BME280;20720;48.886;9.388;2023-02-18T04:43:45;99163.06;;;14.52;100.00
34482;BME280;20720;48.886;9.388;2023-02-18T04:46:11;99164.03;;;14.25;100.00
34482;BME280;20720;48.886;9.388;2023-02-18T04:48:36;99159.78;;;14.50;100.00
34482;BME280;20720;48.886;9.388;2023-02-18T04:51:01;99164.47;;;14.67;100.00
34482;BME280;20720;48.886;9.388;2023-02-18T04:53:27;99165.44;;;14.21;100.00
34482;BME280;20720;48.886;9.388;2023-02-18T04:55:53;99164.88;;;13.58;100.00
34482;BME280;20720;48.886;9.388;2023-02-18T04:58:19;99169.47;;;14.10;100.00
34482;BME280;20720;48.886;9.388;2023-02-18T05:00:45;99173.38;;;14.21;100.00
34482;BME280;20720;48.886;9.388;2023-02-18T05:03:11;99178.50;;;14.35;100.00
34482;BME280;20720;48.886;9.388;2023-02-18T05:05:36;99180.91;;;14.17;100.00
34482;BME280;20720;48.886;9.388;2023-02-18T05:08:02;99181.97;;;14.36;100.00
34482;BME280;20720;48.886;9.388;2023-02-18T05:10:28;99183.53;;;14.24;100.00
34482;BME280;20720;48.886;9.388;2023-02-18T05:12:53;99185.22;;;14.51;100.00
34482;BME280;20720;48.886;9.388;2023-02-18T05:15:18;99187.41;;;14.14;100.00
34482;BME280;20720;48.886;9.388;2023-02-18T05:17:43;99188.81;;;13.50;100.00
34482;BME280;20720;48.886;9.388;2023-02-18T05:20:09;99178.41;;;13.42;100.00
34482;BME280;20720;48.886;9.388;2023-02-18T05:22:35;99175.41;;;13.52;100.00
34482;BME280;20720;48.886;9.388;2023-02-18T05:25:00;99164.63;;;13.47;100.00
34482;BME280;20720;48.886;9.388;2023-02-18T05:27:25;99165.19;;;13.96;100.00
34482;BME280;20720;48.886;9.388;2023-02-18T05:29:50;99164.75;;;13.86;100.00
34482;BME280;20720;48.886;9.388;2023-02-18T05:32:16;99154.84;;;13.94;100.00
34482;BME280;20720;48.886;9.388;2023-02-18T05:34:41;99160.81;;;14.36;100.00
34482;BME280;20720;48.886;9.388;2023-02-18T05:37:06;99159.59;;;13.65;100.00
34482;BME280;20720;48.886;9.388;2023-02-18T05:39:32;99157.66;;;13.86;100.00
34482;BME280;20720;48.886;9.388;2023-02-18T05:41:57;99158.94;;;13.50;100.00
34482;BME280;20720;48.886;9.388;2023-02-18T05:44:22;99162.19;;;13.45;100.00
34482;BME280;20720;48.886;9.388;2023-02-18T05:47:05;99163.34;;;13.83;100.00
34482;BME280;20720;48.886;9.388;2023-02-18T05:49:31;99168.97;;;13.67;100.00
34482;BME280;20720;48.886;9.388;2023-02-18T05:51:57;99170.94;;;13.52;100.00
34482;BME280;20720;48.886;9.388;2023-02-18T05:54:23;99161.28;;;13.85;100.00
34482;BME280;20720;48.886;9.388;2023-02-18T05:56:49;99171.44;;;13.82;100.00
34482;BME280;20720;48.886;9.388;2023-02-18T05:59:15;99167.81;;;13.83;100.00
34482;BME280;20720;48.886;9.388;2023-02-18T06:01:40;99156.78;;;13.66;100.00
34482;BME280;20720;48.886;9.388;2023-02-18T06:04:05;99156.38;;;13.69;100.00
34482;BME280;20720;48.886;9.388;2023-02-18T06:06:31;99151.88;;;13.63;100.00
34482;BME280;20720;48.886;9.388;2023-02-18T06:08:56;99155.50;;;13.49;100.00
34482;BME280;20720;48.886;9.388;2023-02-18T06:11:22;99146.78;;;13.55;100.00
34482;BME280;20720;48.886;9.388;2023-02-18T06:13:47;99153.03;;;13.48;100.00
34482;BME280;20720;48.886;9.388;2023-02-18T06:16:12;99161.78;;;13.48;100.00
34482;BME280;20720;48.886;9.388;2023-02-18T06:18:37;99159.25;;;13.74;100.00
34482;BME280;20720;48.886;9.388;2023-02-18T06:21:03;99162.66;;;13.68;100.00
34482;BME280;20720;48.886;9.388;2023-02-18T06:23:29;99170.25;;;13.84;100.00
34482;BME280;20720;48.886;9.388;2023-02-18T06:25:54;99170.22;;;13.24;100.00
34482;BME280;20720;48.886;9.388;2023-02-18T06:28:19;99171.72;;;13.46;100.00
34482;BME280;20720;48.886;9.388;2023-02-18T06:30:45;99174.34;;;13.87;100.00
34482;BME280;20720;48.886;9.388;2023-02-18T06:33:10;99175.56;;;13.97;100.00
34482;BME280;20720;48.886;9.388;2023-02-18T06:35:35;99173.94;;;13.43;100.00
34482;BME280;20720;48.886;9.388;2023-02-18T06:38:01;99162.72;;;13.81;100.00
34482;BME280;20720;48.886;9.388;2023-02-18T06:40:26;99163.19;;;13.98;100.00
34482;BME280;20720;48.886;9.388;2023-02-18T06:42:51;99161.84;;;13.61;100.00
34482;BME280;20720;48.886;9.388;2023-02-18T06:45:17;99163.34;;;13.90;100.00
34482;BME280;20720;48.886;9.388;2023-02-18T06:47:42;99169.47;;;13.90;100.00
34482;BME280;20720;48.886;9.388;2023-02-18T06:50:08;99164.97;;;13.84;100.00
34482;BME280;20720;48.886;9.388;2023-02-18T06:52:34;99159.66;;;13.71;100.00
34482;BME280;20720;48.886;9.388;2023-02-18T06:55:00;99159.69;;;13.84;100.00
34482;BME280;20720;48.886;9.388;2023-02-18T06:57:25;99158.44;;;13.80;100.00
34482;BME280;20720;48.886;9.388;2023-02-18T06:59:50;99155.50;;;13.49;100.00
34482;BME280;20720;48.886;9.388;2023-02-18T07:02:15;99155.44;;;13.83;100.00
34482;BME280;20720;48.886;9.388;2023-02-18T07:04:41;99153.00;;;13.88;100.00
34482;BME280;20720;48.886;9.388;2023-02-18T07:07:06;99158.56;;;13.59;100.00
34482;BME280;20720;48.886;9.388;2023-02-18T07:09:32;99163.91;;;13.66;100.00
34482;BME280;20720;48.886;9.388;2023-02-18T07:11:57;99165.41;;;13.94;100.00
34482;BME280;20720;48.886;9.388;2023-02-18T07:14:23;99167.78;;;13.76;100.00
34482;BME280;20720;48.886;9.388;2023-02-18T07:16:49;99157.38;;;13.62;100.00
34482;BME280;20720;48.886;9.388;2023-02-18T07:19:15;99152.28;;;13.60;100.00
34482;BME280;20720;48.886;9.388;2023-02-18T07:21:41;99156.63;;;13.87;100.00
34482;BME280;20720;48.886;9.388;2023-02-18T07:24:06;99150.94;;;13.77;100.00
34482;BME280;20720;48.886;9.388;2023-02-18T07:26:31;99149.47;;;13.68;100.00
34482;BME280;20720;48.886;9.388;2023-02-18T07:28:56;99147.94;;;14.06;100.00
34482;BME280;20720;48.886;9.388;2023-02-18T07:31:22;99138.69;;;13.63;100.00
34482;BME280;20720;48.886;9.388;2023-02-18T07:33:47;99138.47;;;13.58;100.00
34482;BME280;20720;48.886;9.388;2023-02-18T07:36:12;99145.09;;;14.14;100.00
34482;BME280;20720;48.886;9.388;2023-02-18T07:38:38;99136.94;;;13.90;100.00
34482;BME280;20720;48.886;9.388;2023-02-18T07:41:03;99140.22;;;13.98;100.00
34482;BME280;20720;48.886;9.388;2023-02-18T07:43:28;99136.53;;;13.93;100.00
34482;BME280;20720;48.886;9.388;2023-02-18T07:45:54;99125.97;;;13.99;100.00
34482;BME280;20720;48.886;9.388;2023-02-18T07:48:19;99120.25;;;13.89;100.00
34482;BME280;20720;48.886;9.388;2023-02-18T07:50:45;99129.84;;;13.90;100.00
34482;BME280;20720;48.886;9.388;2023-02-18T07:53:12;99121.34;;;14.41;100.00
34482;BME280;20720;48.886;9.388;2023-02-18T07:55:38;99114.66;;;14.32;100.00
34482;BME280;20720;48.886;9.388;2023-02-18T07:58:20;99105.47;;;14.21;100.00
34482;BME280;20720;48.886;9.388;2023-02-18T08:00:46;99115.47;;;14.39;100.00
34482;BME280;20720;48.886;9.388;2023-02-18T08:03:14;99123.00;;;14.42;100.00
34482;BME280;20720;48.886;9.388;2023-02-18T08:05:40;99117.91;;;14.60;100.00
34482;BME280;20720;48.886;9.388;2023-02-18T08:08:05;99120.97;;;14.44;100.00
34482;BME280;20720;48.886;9.388;2023-02-18T08:10:31;99127.47;;;14.54;100.00
34482;BME280;20720;48.886;9.388;2023-02-18T08:12:56;99116.50;;;14.38;100.00
34482;BME280;20720;48.886;9.388;2023-02-18T08:15:21;99120.16;;;14.43;100.00
34482;BME280;20720;48.886;9.388;2023-02-18T08:17:47;99118.53;;;14.36;100.00
34482;BME280;20720;48.886;9.388;2023-02-18T08:20:12;99122.38;;;14.53;100.00
34482;BME280;20720;48.886;9.388;2023-02-18T08:22:38;99119.50;;;14.74;100.00
34482;BME280;20720;48.886;9.388;2023-02-18T08:25:03;99123.97;;;14.67;100.00
34482;BME280;20720;48.886;9.388;2023-02-18T08:27:33;99124.81;;;14.61;100.00
34482;BME280;20720;48.886;9.388;2023-02-18T08:29:58;99115.00;;;14.94;100.00
34482;BME280;20720;48.886;9.388;2023-02-18T08:32:26;99113.63;;;14.59;100.00
34482;BME280;20720;48.886;9.388;2023-02-18T08:34:52;99118.28;;;14.70;100.00
34482;BME280;20720;48.886;9.388;2023-02-18T08:37:18;99120.72;;;14.78;100.00
34482;BME280;20720;48.886;9.388;2023-02-18T08:39:43;99110.09;;;15.04;100.00
34482;BME280;20720;48.886;9.388;2023-02-18T08:42:08;99107.56;;;15.22;100.00
34482;BME280;20720;48.886;9.388;2023-02-18T08:44:34;99109.50;;;15.59;100.00
34482;BME280;20720;48.886;9.388;2023-02-18T08:46:59;99107.91;;;15.45;100.00
34482;BME280;20720;48.886;9.388;2023-02-18T08:49:24;99111.31;;;15.08;100.00
34482;BME280;20720;48.886;9.388;2023-02-18T08:51:50;99107.13;;;15.38;100.00
34482;BME280;20720;48.886;9.388;2023-02-18T08:54:16;99102.66;;;15.32;100.00
34482;BME280;20720;48.886;9.388;2023-02-18T08:56:41;99105.06;;;15.40;100.00
34482;BME280;20720;48.886;9.388;2023-02-18T08:59:07;99098.38;;;15.75;100.00
34482;BME280;20720;48.886;9.388;2023-02-18T09:01:32;99101.47;;;15.72;100.00
34482;BME280;20720;48.886;9.388;2023-02-18T09:03:57;99091.13;;;15.58;100.00
34482;BME280;20720;48.886;9.388;2023-02-18T09:06:23;99091.59;;;15.86;100.00
34482;BME280;20720;48.886;9.388;2023-02-18T09:08:48;99096.34;;;15.77;100.00
34482;BME280;20720;48.886;9.388;2023-02-18T09:11:14;99084.53;;;16.05;100.00
34482;BME280;20720;48.886;9.388;2023-02-18T09:13:40;99086.41;;;15.97;100.00
34482;BME280;20720;48.886;9.388;2023-02-18T09:16:11;99099.53;;;16.48;100.00
34482;BME280;20720;48.886;9.388;2023-02-18T09:18:37;99100.22;;;16.06;100.00
34482;BME280;20720;48.886;9.388;2023-02-18T09:21:04;99100.09;;;15.94;100.00
34482;BME280;20720;48.886;9.388;2023-02-18T09:23:30;99096.69;;;15.87;100.00
34482;BME280;20720;48.886;9.388;2023-02-18T09:25:56;99090.16;;;16.39;100.00
34482;BME280;20720;48.886;9.388;2023-02-18T09:28:22;99090.22;;;16.33;100.00
34482;BME280;20720;48.886;9.388;2023-02-18T09:30:48;99083.16;;;16.45;100.00
34482;BME280;20720;48.886;9.388;2023-02-18T09:33:13;99079.84;;;16.31;100.00
34482;BME280;20720;48.886;9.388;2023-02-18T09:35:40;99084.66;;;16.41;100.00
34482;BME280;20720;48.886;9.388;2023-02-18T09:38:08;99082.25;;;17.00;99.52
34482;BME280;20720;48.886;9.388;2023-02-18T09:40:35;99085.44;;;17.09;97.04
34482;BME280;20720;48.886;9.388;2023-02-18T09:43:01;99077.13;;;17.17;92.94
34482;BME280;20720;48.886;9.388;2023-02-18T09:45:28;99078.84;;;17.29;92.71
34482;BME280;20720;48.886;9.388;2023-02-18T09:47:54;99075.34;;;16.56;96.90
34482;BME280;20720;48.886;9.388;2023-02-18T09:50:22;99075.56;;;17.63;89.97
34482;BME280;20720;48.886;9.388;2023-02-18T09:52:48;99070.25;;;18.05;89.01
34482;BME280;20720;48.886;9.388;2023-02-18T09:57:43;99063.53;;;18.14;85.58
34482;BME280;20720;48.886;9.388;2023-02-18T10:00:14;99079.19;;;17.51;90.43
34482;BME280;20720;48.886;9.388;2023-02-18T10:02:53;99071.63;;;17.00;91.15
34482;BME280;20720;48.886;9.388;2023-02-18T10:05:19;99079.50;;;16.46;98.05
34482;BME280;20720;48.886;9.388;2023-02-18T10:07:45;99078.66;;;16.52;97.22
34482;BME280;20720;48.886;9.388;2023-02-18T10:10:26;99076.69;;;17.56;91.65
34482;BME280;20720;48.886;9.388;2023-02-18T10:12:55;99083.03;;;17.55;89.98
34482;BME280;20720;48.886;9.388;2023-02-18T10:15:27;99082.38;;;17.59;90.17
34482;BME280;20720;48.886;9.388;2023-02-18T10:17:54;99077.38;;;17.33;91.03
34482;BME280;20720;48.886;9.388;2023-02-18T10:20:24;99094.94;;;17.16;90.59
34482;BME280;20720;48.886;9.388;2023-02-18T10:22:52;99092.72;;;16.95;94.55
34482;BME280;20720;48.886;9.388;2023-02-18T10:25:19;99080.78;;;17.04;92.60
34482;BME280;20720;48.886;9.388;2023-02-18T10:27:47;99097.72;;;16.85;93.78
34482;BME280;20720;48.886;9.388;2023-02-18T10:32:42;99093.59;;;16.71;95.37
34482;BME280;20720;48.886;9.388;2023-02-18T10:35:37;99086.38;;;16.29;97.97
34482;BME280;20720;48.886;9.388;2023-02-18T10:38:21;99081.78;;;16.18;100.00
34482;BME280;20720;48.886;9.388;2023-02-18T10:41:05;99089.91;;;16.72;97.65
34482;BME280;20720;48.886;9.388;2023-02-18T10:49:54;99075.72;;;16.60;96.35
34482;BME280;20720;48.886;9.388;2023-02-18T10:52:22;99070.50;;;16.47;92.53
34482;BME280;20720;48.886;9.388;2023-02-18T10:55:01;99072.66;;;16.81;91.81
34482;BME280;20720;48.886;9.388;2023-02-18T10:57:28;99072.06;;;16.79;90.00
34482;BME280;20720;48.886;9.388;2023-02-18T11:02:37;99072.13;;;16.90;92.12
34482;BME280;20720;48.886;9.388;2023-02-18T11:05:24;99061.25;;;16.80;92.77
34482;BME280;20720;48.886;9.388;2023-02-18T11:07:54;99061.94;;;16.45;92.99
34482;BME280;20720;48.886;9.388;2023-02-18T11:10:25;99062.41;;;16.42;95.02
34482;BME280;20720;48.886;9.388;2023-02-18T11:13:00;99060.97;;;16.64;93.04
34482;BME280;20720;48.886;9.388;2023-02-18T11:15:27;99047.34;;;16.36;95.35
34482;BME280;20720;48.886;9.388;2023-02-18T11:17:55;99050.69;;;16.74;92.93
34482;BME280;20720;48.886;9.388;2023-02-18T11:22:51;99055.38;;;16.54;93.66
34482;BME280;20720;48.886;9.388;2023-02-18T11:25:25;99053.25;;;16.62;95.13
34482;BME280;20720;48.886;9.388;2023-02-18T11:27:56;99037.47;;;17.22;92.88
34482;BME280;20720;48.886;9.388;2023-02-18T11:30:25;99035.72;;;16.61;96.07
34482;BME280;20720;48.886;9.388;2023-02-18T11:33:17;99034.03;;;17.03;95.59
34482;BME280;20720;48.886;9.388;2023-02-18T11:35:50;99034.88;;;17.15;94.18
34482;BME280;20720;48.886;9.388;2023-02-18T11:38:23;99041.91;;;17.57;92.44
34482;BME280;20720;48.886;9.388;2023-02-18T11:40:54;99033.22;;;17.32;89.26
34482;BME280;20720;48.886;9.388;2023-02-18T11:43:20;99026.50;;;17.00;91.89
34482;BME280;20720;48.886;9.388;2023-02-18T11:45:46;99030.94;;;16.88;90.00
34482;BME280;20720;48.886;9.388;2023-02-18T11:48:18;99029.59;;;16.97;87.83
34482;BME280;20720;48.886;9.388;2023-02-18T11:50:49;99036.13;;;17.31;86.59
34482;BME280;20720;48.886;9.388;2023-02-18T11:53:36;99029.72;;;17.02;87.69
34482;BME280;20720;48.886;9.388;2023-02-18T11:56:04;99031.78;;;17.00;87.79
34482;BME280;20720;48.886;9.388;2023-02-18T11:58:43;99039.63;;;16.77;88.18
34482;BME280;20720;48.886;9.388;2023-02-18T12:01:42;99020.91;;;16.72;88.66
34482;BME280;20720;48.886;9.388;2023-02-18T12:04:26;99035.78;;;16.91;88.05
34482;BME280;20720;48.886;9.388;2023-02-18T12:07:14;99026.72;;;16.62;88.80
34482;BME280;20720;48.886;9.388;2023-02-18T12:12:12;99023.69;;;16.77;88.60
34482;BME280;20720;48.886;9.388;2023-02-18T12:14:39;99021.59;;;17.33;86.33
34482;BME280;20720;48.886;9.388;2023-02-18T12:17:19;99017.03;;;17.04;86.48
34482;BME280;20720;48.886;9.388;2023-02-18T12:22:39;99019.41;;;16.58;88.95
34482;BME280;20720;48.886;9.388;2023-02-18T12:36:23;99017.63;;;17.54;82.92
34482;BME280;20720;48.886;9.388;2023-02-18T12:42:18;99000.47;;;17.09;86.32
34482;BME280;20720;48.886;9.388;2023-02-18T12:44:43;99015.09;;;16.63;86.23
34482;BME280;20720;48.886;9.388;2023-02-18T12:47:33;99008.63;;;16.35;86.64
34482;BME280;20720;48.886;9.388;2023-02-18T12:56:02;99005.69;;;16.79;87.54
34482;BME280;20720;48.886;9.388;2023-02-18T12:58:54;98990.63;;;16.37;89.27
34482;BME280;20720;48.886;9.388;2023-02-18T13:01:33;99005.22;;;16.46;88.72
34482;BME280;20720;48.886;9.388;2023-02-18T13:04:32;98993.25;;;16.19;89.63
34482;BME280;20720;48.886;9.388;2023-02-18T13:15:24;98993.19;;;16.25;90.77
34482;BME280;20720;48.886;9.388;2023-02-18T13:17:56;98991.50;;;16.31;91.24
34482;BME280;20720;48.886;9.388;2023-02-18T13:20:39;98984.88;;;16.40;90.88
34482;BME280;20720;48.886;9.388;2023-02-18T13:23:05;98984.19;;;16.08;91.63
34482;BME280;20720;48.886;9.388;2023-02-18T13:25:36;98981.31;;;16.28;92.21
34482;BME280;20720;48.886;9.388;2023-02-18T13:28:48;98974.88;;;16.60;90.69
34482;BME280;20720;48.886;9.388;2023-02-18T13:33:57;98981.63;;;16.38;89.72
34482;BME280;20720;48.886;9.388;2023-02-18T13:36:51;98963.50;;;16.17;93.48
34482;BME280;20720;48.886;9.388;2023-02-18T13:39:21;98974.97;;;16.11;93.83
34482;BME280;20720;48.886;9.388;2023-02-18T13:41:49;98960.50;;;15.88;93.74
34482;BME280;20720;48.886;9.388;2023-02-18T13:46:55;98961.34;;;16.50;90.27
34482;BME280;20720;48.886;9.388;2023-02-18T13:49:23;98948.34;;;16.60;89.74
34482;BME280;20720;48.886;9.388;2023-02-18T13:51:53;98960.88;;;16.35;90.28
34482;BME280;20720;48.886;9.388;2023-02-18T13:54:41;98951.00;;;16.42;91.62
34482;BME280;20720;48.886;9.388;2023-02-18T13:57:19;98958.06;;;16.30;92.59
34482;BME280;20720;48.886;9.388;2023-02-18T13:59:50;98949.28;;;16.54;91.83
34482;BME280;20720;48.886;9.388;2023-02-18T14:10:00;98935.69;;;16.62;89.42
34482;BME280;20720;48.886;9.388;2023-02-18T14:13:18;98934.91;;;16.00;93.19
34482;BME280;20720;48.886;9.388;2023-02-18T14:20:44;98922.88;;;17.07;88.50
34482;BME280;20720;48.886;9.388;2023-02-18T14:25:49;98922.34;;;16.98;88.33
34482;BME280;20720;48.886;9.388;2023-02-18T14:33:38;98912.31;;;17.00;87.85
34482;BME280;20720;48.886;9.388;2023-02-18T14:38:41;98919.31;;;16.29;91.53
34482;BME280;20720;48.886;9.388;2023-02-18T14:41:28;98927.41;;;16.34;92.33
34482;BME280;20720;48.886;9.388;2023-02-18T14:47:44;98918.28;;;16.30;95.01
34482;BME280;20720;48.886;9.388;2023-02-18T14:50:01;98910.78;;;16.92;92.31
34482;BME280;20720;48.886;9.388;2023-02-18T14:52:31;98922.13;;;16.70;91.97
34482;BME280;20720;48.886;9.388;2023-02-18T14:55:00;98918.34;;;16.77;93.18
34482;BME280;20720;48.886;9.388;2023-02-18T14:57:33;98926.19;;;17.02;93.58
34482;BME280;20720;48.886;9.388;2023-02-18T15:00:01;98923.94;;;16.69;98.70
34482;BME280;20720;48.886;9.388;2023-02-18T15:02:28;98918.16;;;16.61;100.00